sensor_id;sensor_type;location;lat;lon;timestamp;pressure;altitude;pressure_sealevel;temperature;humidity
12475;BME280;6302;42.624;23.334;2023-07-24T00:02:23;93582.06;;;21.37;96.24
12475;BME280;6302;42.624;23.334;2023-07-24T00:04:50;93584.91;;;21.33;94.74
12475;BME280;6302;42.624;23.334;2023-07-24T00:07:16;93580.72;;;21.32;94.58
12475;BME280;6302;42.624;23.334;2023-07-24T00:09:43;93578.47;;;21.31;94.86
12475;BME280;6302;42.624;23.334;2023-07-24T00:12:10;93580.44;;;21.30;95.43
12475;BME280;6302;42.624;23.334;2023-07-24T00:14:37;93578.78;;;21.24;96.09
12475;BME280;6302;42.624;23.334;2023-07-24T00:17:04;93582.22;;;21.24;95.94
12475;BME280;6302;42.624;23.334;2023-07-24T00:19:32;93576.56;;;21.22;95.83
12475;BME280;6302;42.624;23.334;2023-07-24T00:21:59;93568.63;;;21.19;95.00
12475;BME280;6302;42.624;23.334;2023-07-24T00:24:26;93570.25;;;21.16;94.24
12475;BME280;6302;42.624;23.334;2023-07-24T00:26:53;93578.22;;;21.11;93.12
12475;BME280;6302;42.624;23.334;2023-07-24T00:29:19;93573.75;;;21.08;92.07
12475;BME280;6302;42.624;23.334;2023-07-24T00:31:46;93577.28;;;21.05;91.18
12475;BME280;6302;42.624;23.334;2023-07-24T00:34:13;93578.94;;;21.02;91.16
12475;BME280;6302;42.624;23.334;2023-07-24T00:36:41;93573.41;;;20.97;91.41
12475;BME280;6302;42.624;23.334;2023-07-24T00:39:08;93569.66;;;20.94;91.93
12475;BME280;6302;42.624;23.334;2023-07-24T00:41:35;93581.66;;;20.93;92.94
12475;BME280;6302;42.624;23.334;2023-07-24T00:44:01;93574.75;;;20.92;93.67
12475;BME280;6302;42.624;23.334;2023-07-24T00:46:28;93571.78;;;20.90;94.65
12475;BME280;6302;42.624;23.334;2023-07-24T00:48:58;93562.34;;;20.86;95.19
12475;BME280;6302;42.624;23.334;2023-07-24T00:51:26;93566.41;;;20.81;95.05
12475;BME280;6302;42.624;23.334;2023-07-24T00:53:55;93574.78;;;20.83;95.29
12475;BME280;6302;42.624;23.334;2023-07-24T00:56:22;93573.28;;;20.82;95.89
12475;BME280;6302;42.624;23.334;2023-07-24T00:58:49;93571.47;;;20.79;96.02
12475;BME280;6302;42.624;23.334;2023-07-24T01:01:17;93573.13;;;20.76;95.62
12475;BME280;6302;42.624;23.334;2023-07-24T01:03:44;93566.38;;;20.72;95.61
12475;BME280;6302;42.624;23.334;2023-07-24T01:06:11;93560.72;;;20.70;95.50
12475;BME280;6302;42.624;23.334;2023-07-24T01:08:37;93561.59;;;20.67;95.56
12475;BME280;6302;42.624;23.334;2023-07-24T01:11:11;93564.00;;;20.65;95.75
12475;BME280;6302;42.624;23.334;2023-07-24T01:13:42;93555.03;;;20.59;96.22
12475;BME280;6302;42.624;23.334;2023-07-24T01:16:14;93553.53;;;20.58;96.44
12475;BME280;6302;42.624;23.334;2023-07-24T01:18:45;93567.44;;;20.56;97.02
12475;BME280;6302;42.624;23.334;2023-07-24T01:21:12;93563.72;;;20.54;97.30
12475;BME280;6302;42.624;23.334;2023-07-24T01:23:45;93560.09;;;20.48;97.94
12475;BME280;6302;42.624;23.334;2023-07-24T01:26:22;93561.00;;;20.45;98.57
12475;BME280;6302;42.624;23.334;2023-07-24T01:28:50;93555.75;;;20.41;98.96
12475;BME280;6302;42.624;23.334;2023-07-24T01:31:17;93529.88;;;20.26;100.00
12475;BME280;6302;42.624;23.334;2023-07-24T01:33:44;93552.91;;;20.36;100.00
12475;BME280;6302;42.624;23.334;2023-07-24T01:36:13;93555.31;;;20.34;100.00
12475;BME280;6302;42.624;23.334;2023-07-24T01:38:40;93549.94;;;20.34;100.00
12475;BME280;6302;42.624;23.334;2023-07-24T01:41:07;93547.81;;;20.29;100.00
12475;BME280;6302;42.624;23.334;2023-07-24T01:43:36;93548.41;;;20.24;100.00
12475;BME280;6302;42.624;23.334;2023-07-24T01:46:03;93547.34;;;20.21;100.00
12475;BME280;6302;42.624;23.334;2023-07-24T01:48:29;93561.97;;;20.20;100.00
12475;BME280;6302;42.624;23.334;2023-07-24T01:50:56;93567.81;;;20.19;100.00
12475;BME280;6302;42.624;23.334;2023-07-24T01:53:23;93581.28;;;20.19;100.00
12475;BME280;6302;42.624;23.334;2023-07-24T01:55:50;93574.38;;;20.18;100.00
12475;BME280;6302;42.624;23.334;2023-07-24T01:58:16;93577.66;;;20.12;100.00
12475;BME280;6302;42.624;23.334;2023-07-24T02:00:44;93573.19;;;20.09;100.00
12475;BME280;6302;42.624;23.334;2023-07-24T02:03:11;93570.16;;;20.07;100.00
12475;BME280;6302;42.624;23.334;2023-07-24T02:05:38;93568.06;;;20.02;100.00
12475;BME280;6302;42.624;23.334;2023-07-24T02:08:05;93571.81;;;20.05;100.00
12475;BME280;6302;42.624;23.334;2023-07-24T02:10:31;93566.59;;;20.01;100.00
12475;BME280;6302;42.624;23.334;2023-07-24T02:12:58;93563.59;;;19.99;100.00
12475;BME280;6302;42.624;23.334;2023-07-24T02:15:25;93560.56;;;19.97;100.00
12475;BME280;6302;42.624;23.334;2023-07-24T02:17:53;93550.72;;;19.94;99.90
12475;BME280;6302;42.624;23.334;2023-07-24T02:20:20;93553.09;;;19.92;98.34
12475;BME280;6302;42.624;23.334;2023-07-24T02:22:47;93551.91;;;19.93;98.50
12475;BME280;6302;42.624;23.334;2023-07-24T02:25:14;93550.41;;;19.92;98.45
12475;BME280;6302;42.624;23.334;2023-07-24T02:27:41;93556.09;;;19.94;97.75
12475;BME280;6302;42.624;23.334;2023-07-24T02:30:08;93564.47;;;19.96;96.07
12475;BME280;6302;42.624;23.334;2023-07-24T02:32:35;93555.94;;;19.98;94.35
12475;BME280;6302;42.624;23.334;2023-07-24T02:35:04;93545.94;;;19.98;94.44
12475;BME280;6302;42.624;23.334;2023-07-24T02:37:31;93555.06;;;20.01;94.76
12475;BME280;6302;42.624;23.334;2023-07-24T02:39:58;93550.56;;;19.98;95.73
12475;BME280;6302;42.624;23.334;2023-07-24T02:42:24;93546.41;;;19.97;95.67
12475;BME280;6302;42.624;23.334;2023-07-24T02:44:51;93549.22;;;19.93;95.66
12475;BME280;6302;42.624;23.334;2023-07-24T02:47:18;93550.09;;;19.90;96.17
12475;BME280;6302;42.624;23.334;2023-07-24T02:49:45;93528.22;;;19.70;96.60
12475;BME280;6302;42.624;23.334;2023-07-24T02:52:13;93554.88;;;19.86;96.47
12475;BME280;6302;42.624;23.334;2023-07-24T02:54:40;93556.06;;;19.85;95.46
12475;BME280;6302;42.624;23.334;2023-07-24T02:57:06;93562.03;;;19.80;94.41
12475;BME280;6302;42.624;23.334;2023-07-24T02:59:33;93552.03;;;19.81;94.86
12475;BME280;6302;42.624;23.334;2023-07-24T03:02:00;93551.72;;;19.79;95.64
12475;BME280;6302;42.624;23.334;2023-07-24T03:04:27;93553.34;;;19.76;95.59
12475;BME280;6302;42.624;23.334;2023-07-24T03:06:54;93547.66;;;19.74;95.19
12475;BME280;6302;42.624;23.334;2023-07-24T03:09:22;93543.78;;;19.75;95.87
12475;BME280;6302;42.624;23.334;2023-07-24T03:11:49;93525.38;;;19.65;95.88
12475;BME280;6302;42.624;23.334;2023-07-24T03:14:15;93540.94;;;19.70;96.36
12475;BME280;6302;42.624;23.334;2023-07-24T03:16:42;93532.41;;;19.62;96.62
12475;BME280;6302;42.624;23.334;2023-07-24T03:19:09;93540.19;;;19.69;96.79
12475;BME280;6302;42.624;23.334;2023-07-24T03:21:36;93537.50;;;19.69;96.06
12475;BME280;6302;42.624;23.334;2023-07-24T03:24:03;93537.78;;;19.71;95.06
12475;BME280;6302;42.624;23.334;2023-07-24T03:26:31;93539.31;;;19.72;94.47
12475;BME280;6302;42.624;23.334;2023-07-24T03:28:58;93543.78;;;19.75;93.33
12475;BME280;6302;42.624;23.334;2023-07-24T03:31:25;93540.50;;;19.80;90.96
12475;BME280;6302;42.624;23.334;2023-07-24T03:33:51;93545.00;;;19.83;89.69
12475;BME280;6302;42.624;23.334;2023-07-24T03:36:18;93554.88;;;19.86;89.35
12475;BME280;6302;42.624;23.334;2023-07-24T03:38:45;93556.38;;;19.87;89.98
12475;BME280;6302;42.624;23.334;2023-07-24T03:41:11;93557.28;;;19.93;90.45
12475;BME280;6302;42.624;23.334;2023-07-24T03:43:40;93559.09;;;19.96;90.58
12475;BME280;6302;42.624;23.334;2023-07-24T03:46:07;93548.34;;;19.96;88.93
12475;BME280;6302;42.624;23.334;2023-07-24T03:48:33;93560.91;;;19.99;90.33
12475;BME280;6302;42.624;23.334;2023-07-24T03:51:02;93559.56;;;20.04;90.96
12475;BME280;6302;42.624;23.334;2023-07-24T03:53:28;93555.66;;;20.05;91.61
12475;BME280;6302;42.624;23.334;2023-07-24T03:55:55;93544.47;;;20.06;92.32
12475;BME280;6302;42.624;23.334;2023-07-24T03:58:22;93544.78;;;20.08;94.39
12475;BME280;6302;42.624;23.334;2023-07-24T04:00:50;93540.31;;;20.15;94.58
12475;BME280;6302;42.624;23.334;2023-07-24T04:03:18;93548.69;;;20.17;95.22
12475;BME280;6302;42.624;23.334;2023-07-24T04:05:45;93554.19;;;20.22;95.68
12475;BME280;6302;42.624;23.334;2023-07-24T04:08:12;93553.97;;;20.29;95.37
12475;BME280;6302;42.624;23.334;2023-07-24T04:10:38;93557.41;;;20.39;94.70
12475;BME280;6302;42.624;23.334;2023-07-24T04:13:05;93569.69;;;20.49;95.12
12475;BME280;6302;42.624;23.334;2023-07-24T04:15:32;93565.19;;;20.55;95.98
12475;BME280;6302;42.624;23.334;2023-07-24T04:18:00;93573.41;;;20.60;97.43
12475;BME280;6302;42.624;23.334;2023-07-24T04:20:27;93578.38;;;20.71;97.75
12475;BME280;6302;42.624;23.334;2023-07-24T04:22:54;93575.97;;;20.73;95.84
12475;BME280;6302;42.624;23.334;2023-07-24T04:25:20;93578.06;;;20.78;96.56
12475;BME280;6302;42.624;23.334;2023-07-24T04:27:47;93574.31;;;20.85;94.59
12475;BME280;6302;42.624;23.334;2023-07-24T04:30:14;93570.72;;;20.88;94.27
12475;BME280;6302;42.624;23.334;2023-07-24T04:32:42;93570.28;;;20.98;95.57
12475;BME280;6302;42.624;23.334;2023-07-24T04:35:10;93555.91;;;21.10;95.79
12475;BME280;6302;42.624;23.334;2023-07-24T04:37:37;93557.41;;;21.20;97.41
12475;BME280;6302;42.624;23.334;2023-07-24T04:40:04;93553.63;;;21.27;99.12
12475;BME280;6302;42.624;23.334;2023-07-24T04:42:31;93557.22;;;21.33;100.00
12475;BME280;6302;42.624;23.334;2023-07-24T04:44:58;93554.63;;;21.38;100.00
12475;BME280;6302;42.624;23.334;2023-07-24T04:47:25;93558.09;;;21.39;100.00
12475;BME280;6302;42.624;23.334;2023-07-24T04:49:52;93560.16;;;21.44;100.00
12475;BME280;6302;42.624;23.334;2023-07-24T04:52:20;93568.13;;;21.48;100.00
12475;BME280;6302;42.624;23.334;2023-07-24T04:54:47;93565.09;;;21.46;100.00
12475;BME280;6302;42.624;23.334;2023-07-24T04:57:13;93565.94;;;21.61;99.55
12475;BME280;6302;42.624;23.334;2023-07-24T04:59:40;93567.22;;;21.83;98.81
12475;BME280;6302;42.624;23.334;2023-07-24T05:02:07;93580.38;;;21.99;96.76
12475;BME280;6302;42.624;23.334;2023-07-24T05:04:33;93576.53;;;22.15;98.31
12475;BME280;6302;42.624;23.334;2023-07-24T05:07:00;93586.91;;;22.08;98.54
12475;BME280;6302;42.624;23.334;2023-07-24T05:09:28;93571.03;;;22.10;96.25
12475;BME280;6302;42.624;23.334;2023-07-24T05:11:55;93578.94;;;22.13;97.05
12475;BME280;6302;42.624;23.334;2023-07-24T05:14:22;93581.03;;;22.18;95.87
12475;BME280;6302;42.624;23.334;2023-07-24T05:16:49;93578.25;;;22.27;92.80
12475;BME280;6302;42.624;23.334;2023-07-24T05:19:16;93578.50;;;22.38;90.30
12475;BME280;6302;42.624;23.334;2023-07-24T05:21:43;93581.13;;;22.47;91.09
12475;BME280;6302;42.624;23.334;2023-07-24T05:24:09;93578.91;;;22.46;90.06
12475;BME280;6302;42.624;23.334;2023-07-24T05:26:37;93587.56;;;22.50;91.33
12475;BME280;6302;42.624;23.334;2023-07-24T05:29:04;93577.44;;;22.59;92.39
12475;BME280;6302;42.624;23.334;2023-07-24T05:31:31;93576.97;;;22.70;89.53
12475;BME280;6302;42.624;23.334;2023-07-24T05:34:00;93583.00;;;22.65;89.69
12475;BME280;6302;42.624;23.334;2023-07-24T05:36:29;93581.91;;;22.72;89.66
12475;BME280;6302;42.624;23.334;2023-07-24T05:38:56;93575.16;;;22.91;88.58
12475;BME280;6302;42.624;23.334;2023-07-24T05:41:23;93570.16;;;23.13;87.34
12475;BME280;6302;42.624;23.334;2023-07-24T05:43:51;93572.28;;;23.23;86.74
12475;BME280;6302;42.624;23.334;2023-07-24T05:46:18;93567.38;;;23.37;87.12
12475;BME280;6302;42.624;23.334;2023-07-24T05:48:44;93566.63;;;23.36;88.17
12475;BME280;6302;42.624;23.334;2023-07-24T05:51:11;93559.91;;;23.46;87.51
12475;BME280;6302;42.624;23.334;2023-07-24T05:53:38;93565.72;;;23.39;87.40
12475;BME280;6302;42.624;23.334;2023-07-24T05:56:05;93558.06;;;23.52;87.89
12475;BME280;6302;42.624;23.334;2023-07-24T05:58:32;93551.59;;;23.64;84.87
12475;BME280;6302;42.624;23.334;2023-07-24T06:01:00;93554.38;;;23.84;82.32
12475;BME280;6302;42.624;23.334;2023-07-24T06:03:27;93543.25;;;23.97;76.53
12475;BME280;6302;42.624;23.334;2023-07-24T06:05:54;93536.84;;;24.15;74.20
12475;BME280;6302;42.624;23.334;2023-07-24T06:08:21;93541.91;;;24.22;73.44
12475;BME280;6302;42.624;23.334;2023-07-24T06:10:49;93544.97;;;24.15;72.69
12475;BME280;6302;42.624;23.334;2023-07-24T06:13:16;93549.59;;;24.09;74.65
12475;BME280;6302;42.624;23.334;2023-07-24T06:15:43;93549.44;;;24.18;68.88
12475;BME280;6302;42.624;23.334;2023-07-24T06:18:11;93549.19;;;24.16;70.85
12475;BME280;6302;42.624;23.334;2023-07-24T06:20:37;93551.22;;;24.21;75.77
12475;BME280;6302;42.624;23.334;2023-07-24T06:23:04;93550.19;;;24.18;78.27
12475;BME280;6302;42.624;23.334;2023-07-24T06:25:31;93545.41;;;24.28;79.27
12475;BME280;6302;42.624;23.334;2023-07-24T06:27:58;93542.81;;;24.19;81.36
12475;BME280;6302;42.624;23.334;2023-07-24T06:30:26;93553.25;;;24.26;81.17
12475;BME280;6302;42.624;23.334;2023-07-24T06:32:52;93542.25;;;24.15;79.22
12475;BME280;6302;42.624;23.334;2023-07-24T06:35:21;93558.00;;;24.31;79.42
12475;BME280;6302;42.624;23.334;2023-07-24T06:37:47;93551.91;;;24.36;79.57
12475;BME280;6302;42.624;23.334;2023-07-24T06:40:14;93553.81;;;24.50;78.47
12475;BME280;6302;42.624;23.334;2023-07-24T06:42:41;93554.75;;;24.67;77.14
12475;BME280;6302;42.624;23.334;2023-07-24T06:45:08;93549.75;;;24.60;78.67
12475;BME280;6302;42.624;23.334;2023-07-24T06:47:35;93546.25;;;24.54;79.80
12475;BME280;6302;42.624;23.334;2023-07-24T06:50:02;93550.31;;;24.44;81.57
12475;BME280;6302;42.624;23.334;2023-07-24T06:52:31;93561.25;;;24.35;80.68
12475;BME280;6302;42.624;23.334;2023-07-24T06:54:58;93553.47;;;24.42;81.03
12475;BME280;6302;42.624;23.334;2023-07-24T06:57:25;93540.31;;;24.35;81.02
12475;BME280;6302;42.624;23.334;2023-07-24T06:59:51;93547.94;;;24.51;82.34
12475;BME280;6302;42.624;23.334;2023-07-24T07:02:18;93561.34;;;24.61;79.56
12475;BME280;6302;42.624;23.334;2023-07-24T07:04:45;93560.91;;;24.47;79.78
12475;BME280;6302;42.624;23.334;2023-07-24T07:07:12;93560.31;;;24.58;82.64
12475;BME280;6302;42.624;23.334;2023-07-24T07:09:40;93569.88;;;24.74;81.16
12475;BME280;6302;42.624;23.334;2023-07-24T07:12:07;93572.78;;;24.90;82.25
12475;BME280;6302;42.624;23.334;2023-07-24T07:14:34;93560.59;;;25.00;79.62
12475;BME280;6302;42.624;23.334;2023-07-24T07:17:01;93566.28;;;25.02;78.82
12475;BME280;6302;42.624;23.334;2023-07-24T07:19:27;93565.16;;;25.14;78.08
12475;BME280;6302;42.624;23.334;2023-07-24T07:21:54;93555.91;;;25.27;78.29
12475;BME280;6302;42.624;23.334;2023-07-24T07:24:21;93557.41;;;25.28;75.78
12475;BME280;6302;42.624;23.334;2023-07-24T07:26:49;93543.03;;;25.21;76.93
12475;BME280;6302;42.624;23.334;2023-07-24T07:29:16;93551.53;;;25.35;77.73
12475;BME280;6302;42.624;23.334;2023-07-24T07:31:43;93549.09;;;25.37;78.06
12475;BME280;6302;42.624;23.334;2023-07-24T07:34:10;93549.06;;;25.57;77.51
12475;BME280;6302;42.624;23.334;2023-07-24T07:36:36;93538.56;;;25.70;77.09
12475;BME280;6302;42.624;23.334;2023-07-24T07:39:03;93550.44;;;25.78;79.19
12475;BME280;6302;42.624;23.334;2023-07-24T07:41:30;93545.16;;;26.00;78.14
12475;BME280;6302;42.624;23.334;2023-07-24T07:43:59;93545.44;;;26.08;75.04
12475;BME280;6302;42.624;23.334;2023-07-24T07:46:26;93526.34;;;25.91;71.84
12475;BME280;6302;42.624;23.334;2023-07-24T07:48:53;93549.13;;;25.99;70.38
12475;BME280;6302;42.624;23.334;2023-07-24T07:51:20;93550.38;;;26.04;70.39
12475;BME280;6302;42.624;23.334;2023-07-24T07:53:47;93546.47;;;26.10;69.51
12475;BME280;6302;42.624;23.334;2023-07-24T07:56:13;93549.88;;;26.00;70.73
12475;BME280;6302;42.624;23.334;2023-07-24T07:58:40;93546.81;;;26.23;70.47
12475;BME280;6302;42.624;23.334;2023-07-24T08:01:08;93546.66;;;26.38;73.15
12475;BME280;6302;42.624;23.334;2023-07-24T08:03:35;93548.34;;;26.35;70.56
12475;BME280;6302;42.624;23.334;2023-07-24T08:06:02;93551.41;;;26.48;70.82
12475;BME280;6302;42.624;23.334;2023-07-24T08:08:28;93555.13;;;26.51;68.57
12475;BME280;6302;42.624;23.334;2023-07-24T08:10:55;93546.44;;;26.41;69.01
12475;BME280;6302;42.624;23.334;2023-07-24T08:13:22;93546.53;;;26.64;68.61
12475;BME280;6302;42.624;23.334;2023-07-24T08:15:50;93552.28;;;26.77;67.32
12475;BME280;6302;42.624;23.334;2023-07-24T08:18:18;93538.91;;;26.73;65.24
12475;BME280;6302;42.624;23.334;2023-07-24T08:20:45;93526.06;;;26.74;67.01
12475;BME280;6302;42.624;23.334;2023-07-24T08:23:11;93535.03;;;26.91;65.16
12475;BME280;6302;42.624;23.334;2023-07-24T08:25:38;93540.00;;;27.09;68.01
12475;BME280;6302;42.624;23.334;2023-07-24T08:28:05;93538.06;;;27.21;64.89
12475;BME280;6302;42.624;23.334;2023-07-24T08:30:32;93531.88;;;27.20;65.43
12475;BME280;6302;42.624;23.334;2023-07-24T08:32:58;93525.22;;;27.38;64.71
12475;BME280;6302;42.624;23.334;2023-07-24T08:35:27;93525.50;;;27.45;64.97
12475;BME280;6302;42.624;23.334;2023-07-24T08:37:54;93521.53;;;27.57;64.58
12475;BME280;6302;42.624;23.334;2023-07-24T08:40:21;93524.50;;;27.70;61.03
12475;BME280;6302;42.624;23.334;2023-07-24T08:45:51;93376.53;;;27.07;58.85
12475;BME280;6302;42.624;23.334;2023-07-24T08:48:18;93515.53;;;28.20;57.55
12475;BME280;6302;42.624;23.334;2023-07-24T08:50:49;93511.28;;;28.30;56.54
12475;BME280;6302;42.624;23.334;2023-07-24T08:53:17;93515.47;;;28.42;57.35
12475;BME280;6302;42.624;23.334;2023-07-24T08:55:45;93519.13;;;28.67;56.24
12475;BME280;6302;42.624;23.334;2023-07-24T08:58:14;93516.28;;;28.89;50.12
12475;BME280;6302;42.624;23.334;2023-07-24T09:00:42;93515.50;;;28.94;53.00
12475;BME280;6302;42.624;23.334;2023-07-24T09:03:08;93516.38;;;28.72;48.20
12475;BME280;6302;42.624;23.334;2023-07-24T09:05:35;93518.41;;;28.66;52.60
12475;BME280;6302;42.624;23.334;2023-07-24T09:08:04;93530.47;;;28.82;52.83
12475;BME280;6302;42.624;23.334;2023-07-24T09:10:30;93497.75;;;28.76;55.08
12475;BME280;6302;42.624;23.334;2023-07-24T09:12:57;93514.03;;;28.98;52.92
12475;BME280;6302;42.624;23.334;2023-07-24T09:15:24;93519.97;;;28.97;50.76
12475;BME280;6302;42.624;23.334;2023-07-24T09:17:52;93511.09;;;28.85;50.98
12475;BME280;6302;42.624;23.334;2023-07-24T09:20:19;93498.66;;;28.95;53.50
12475;BME280;6302;42.624;23.334;2023-07-24T09:22:50;93499.53;;;29.20;52.11
12475;BME280;6302;42.624;23.334;2023-07-24T09:25:29;93503.44;;;29.30;48.74
12475;BME280;6302;42.624;23.334;2023-07-24T09:27:57;93507.25;;;29.46;49.48
12475;BME280;6302;42.624;23.334;2023-07-24T09:30:24;93498.28;;;29.51;50.58
12475;BME280;6302;42.624;23.334;2023-07-24T09:32:52;93484.59;;;29.56;48.21
12475;BME280;6302;42.624;23.334;2023-07-24T09:35:20;93497.06;;;29.52;48.36
12475;BME280;6302;42.624;23.334;2023-07-24T09:37:51;93493.34;;;29.49;48.83
12475;BME280;6302;42.624;23.334;2023-07-24T09:40:37;93483.63;;;29.54;47.70
12475;BME280;6302;42.624;23.334;2023-07-24T09:43:17;93476.59;;;29.64;47.12
12475;BME280;6302;42.624;23.334;2023-07-24T09:45:45;93475.44;;;29.84;47.68
12475;BME280;6302;42.624;23.334;2023-07-24T09:48:13;93467.31;;;30.02;46.93
12475;BME280;6302;42.624;23.334;2023-07-24T09:50:40;93461.09;;;30.26;46.73
12475;BME280;6302;42.624;23.334;2023-07-24T09:53:12;93456.84;;;30.49;45.44
12475;BME280;6302;42.624;23.334;2023-07-24T09:55:47;93455.38;;;30.67;43.77
12475;BME280;6302;42.624;23.334;2023-07-24T09:58:17;93459.91;;;30.64;43.63
12475;BME280;6302;42.624;23.334;2023-07-24T10:00:45;93452.06;;;30.74;42.46
12475;BME280;6302;42.624;23.334;2023-07-24T10:03:13;93457.78;;;30.95;42.84
12475;BME280;6302;42.624;23.334;2023-07-24T10:05:41;93450.81;;;31.12;42.78
12475;BME280;6302;42.624;23.334;2023-07-24T10:08:09;93440.97;;;31.22;41.81
12475;BME280;6302;42.624;23.334;2023-07-24T10:10:38;93445.38;;;31.44;40.27
12475;BME280;6302;42.624;23.334;2023-07-24T10:13:10;93445.72;;;31.03;39.90
12475;BME280;6302;42.624;23.334;2023-07-24T10:15:39;93439.03;;;31.17;40.08
12475;BME280;6302;42.624;23.334;2023-07-24T10:18:07;93433.28;;;31.34;42.26
12475;BME280;6302;42.624;23.334;2023-07-24T10:20:39;93410.56;;;31.39;40.24
12475;BME280;6302;42.624;23.334;2023-07-24T10:23:07;93423.50;;;31.38;40.06
12475;BME280;6302;42.624;23.334;2023-07-24T10:25:36;93430.34;;;31.32;39.95
12475;BME280;6302;42.624;23.334;2023-07-24T10:28:04;93412.78;;;31.40;40.72
12475;BME280;6302;42.624;23.334;2023-07-24T10:30:35;93407.75;;;31.44;39.23
12475;BME280;6302;42.624;23.334;2023-07-24T10:33:07;93406.09;;;31.55;40.38
12475;BME280;6302;42.624;23.334;2023-07-24T10:35:39;93417.69;;;31.61;40.91
12475;BME280;6302;42.624;23.334;2023-07-24T10:38:06;93402.09;;;31.56;40.38
12475;BME280;6302;42.624;23.334;2023-07-24T10:40:33;93409.06;;;31.83;41.24
12475;BME280;6302;42.624;23.334;2023-07-24T10:43:04;93405.19;;;31.91;39.37
12475;BME280;6302;42.624;23.334;2023-07-24T10:45:47;93402.53;;;31.86;39.43
12475;BME280;6302;42.624;23.334;2023-07-24T10:48:15;93410.56;;;31.84;39.62
12475;BME280;6302;42.624;23.334;2023-07-24T10:50:43;93410.16;;;32.06;40.05
12475;BME280;6302;42.624;23.334;2023-07-24T10:53:12;93393.88;;;31.95;39.17
12475;BME280;6302;42.624;23.334;2023-07-24T10:55:41;93397.72;;;32.05;39.15
12475;BME280;6302;42.624;23.334;2023-07-24T10:58:09;93392.97;;;32.32;37.52
12475;BME280;6302;42.624;23.334;2023-07-24T11:00:36;93386.94;;;32.46;36.69
12475;BME280;6302;42.624;23.334;2023-07-24T11:03:08;93395.16;;;32.46;38.08
12475;BME280;6302;42.624;23.334;2023-07-24T11:05:39;93390.81;;;32.64;38.54
12475;BME280;6302;42.624;23.334;2023-07-24T11:08:09;93375.69;;;32.70;37.03
12475;BME280;6302;42.624;23.334;2023-07-24T11:10:44;93393.31;;;32.75;36.67
12475;BME280;6302;42.624;23.334;2023-07-24T11:13:11;93388.38;;;32.73;36.12
12475;BME280;6302;42.624;23.334;2023-07-24T11:15:38;93383.31;;;32.64;36.34
12475;BME280;6302;42.624;23.334;2023-07-24T11:18:06;93368.56;;;32.54;36.90
12475;BME280;6302;42.624;23.334;2023-07-24T11:20:37;93377.88;;;32.85;36.93
12475;BME280;6302;42.624;23.334;2023-07-24T11:23:04;93373.34;;;32.74;34.79
12475;BME280;6302;42.624;23.334;2023-07-24T11:25:31;93367.09;;;32.87;35.43
12475;BME280;6302;42.624;23.334;2023-07-24T11:28:01;93367.47;;;32.70;34.75
12475;BME280;6302;42.624;23.334;2023-07-24T11:30:30;93358.69;;;32.72;36.49
12475;BME280;6302;42.624;23.334;2023-07-24T11:32:57;93361.63;;;32.74;35.03
12475;BME280;6302;42.624;23.334;2023-07-24T11:35:27;93360.66;;;32.85;36.29
12475;BME280;6302;42.624;23.334;2023-07-24T11:37:56;93363.94;;;32.83;33.56
12475;BME280;6302;42.624;23.334;2023-07-24T11:40:31;93352.47;;;33.05;31.92
12475;BME280;6302;42.624;23.334;2023-07-24T11:42:59;93360.63;;;33.18;33.42
12475;BME280;6302;42.624;23.334;2023-07-24T11:45:27;93344.88;;;33.19;34.15
12475;BME280;6302;42.624;23.334;2023-07-24T11:47:54;93342.44;;;33.36;34.21
12475;BME280;6302;42.624;23.334;2023-07-24T11:50:22;93351.19;;;33.27;34.47
12475;BME280;6302;42.624;23.334;2023-07-24T11:52:51;93338.53;;;33.24;34.36
12475;BME280;6302;42.624;23.334;2023-07-24T11:55:20;93342.41;;;33.28;34.82
12475;BME280;6302;42.624;23.334;2023-07-24T11:57:56;93337.06;;;33.51;32.15
12475;BME280;6302;42.624;23.334;2023-07-24T12:00:24;93342.19;;;33.75;33.14
12475;BME280;6302;42.624;23.334;2023-07-24T12:02:59;93349.44;;;33.58;33.79
12475;BME280;6302;42.624;23.334;2023-07-24T12:05:26;93347.63;;;33.19;32.76
12475;BME280;6302;42.624;23.334;2023-07-24T12:07:55;93341.50;;;33.05;35.20
12475;BME280;6302;42.624;23.334;2023-07-24T12:10:26;93338.13;;;33.20;34.02
12475;BME280;6302;42.624;23.334;2023-07-24T12:12:54;93325.00;;;33.05;33.58
12475;BME280;6302;42.624;23.334;2023-07-24T12:15:24;93333.63;;;32.89;32.58
12475;BME280;6302;42.624;23.334;2023-07-24T12:17:52;93325.25;;;32.94;33.27
12475;BME280;6302;42.624;23.334;2023-07-24T12:20:19;93308.41;;;33.11;32.38
12475;BME280;6302;42.624;23.334;2023-07-24T12:22:46;93332.66;;;33.48;32.77
12475;BME280;6302;42.624;23.334;2023-07-24T12:25:15;93325.13;;;33.20;33.31
12475;BME280;6302;42.624;23.334;2023-07-24T12:27:43;93327.47;;;33.37;32.50
12475;BME280;6302;42.624;23.334;2023-07-24T12:30:10;93312.66;;;33.68;32.28
12475;BME280;6302;42.624;23.334;2023-07-24T12:32:38;93325.44;;;33.58;32.78
12475;BME280;6302;42.624;23.334;2023-07-24T12:35:08;93323.03;;;33.34;31.40
12475;BME280;6302;42.624;23.334;2023-07-24T12:37:35;93316.66;;;33.39;31.32
12475;BME280;6302;42.624;23.334;2023-07-24T12:40:05;93317.84;;;33.23;31.50
12475;BME280;6302;42.624;23.334;2023-07-24T12:42:34;93318.78;;;33.05;31.89
12475;BME280;6302;42.624;23.334;2023-07-24T12:45:00;93302.13;;;33.31;32.46
12475;BME280;6302;42.624;23.334;2023-07-24T12:47:29;93296.75;;;33.46;32.10
12475;BME280;6302;42.624;23.334;2023-07-24T12:49:57;93301.44;;;33.59;32.67
12475;BME280;6302;42.624;23.334;2023-07-24T12:52:24;93305.41;;;33.50;33.64
12475;BME280;6302;42.624;23.334;2023-07-24T12:54:53;93303.41;;;33.30;31.91
12475;BME280;6302;42.624;23.334;2023-07-24T12:57:23;93298.00;;;33.17;32.07
12475;BME280;6302;42.624;23.334;2023-07-24T12:59:53;93301.75;;;33.27;32.44
12475;BME280;6302;42.624;23.334;2023-07-24T13:02:21;93301.72;;;33.48;31.25
12475;BME280;6302;42.624;23.334;2023-07-24T13:04:48;93309.50;;;33.36;31.35
12475;BME280;6302;42.624;23.334;2023-07-24T13:07:16;93303.66;;;33.39;31.99